createdAt,value
2023-04-27T00:01:42.220Z,13.10
2023-04-27T00:04:09.177Z,12.60
2023-04-27T00:06:36.125Z,13.70
2023-04-27T00:09:03.903Z,12.40
2023-04-27T00:11:31.039Z,13.50
2023-04-27T00:13:57.782Z,12.90
2023-04-27T00:16:24.562Z,12.30
2023-04-27T00:18:52.270Z,12.00
2023-04-27T00:21:18.910Z,12.90
2023-04-27T00:23:45.858Z,13.40
2023-04-27T00:26:12.386Z,12.50
2023-04-27T00:28:39.278Z,11.60
2023-04-27T00:31:06.001Z,12.90
2023-04-27T00:33:32.667Z,12.70
2023-04-27T00:36:01.349Z,13.20
2023-04-27T00:38:29.486Z,13.20
2023-04-27T00:41:03.813Z,13.30
2023-04-27T00:43:30.613Z,14.70
2023-04-27T00:45:58.124Z,14.90
2023-04-27T00:48:25.548Z,16.40
2023-04-27T00:50:52.750Z,19.40
2023-04-27T00:53:19.959Z,16.90
2023-04-27T00:55:47.230Z,17.70
2023-04-27T00:58:13.819Z,18.30
2023-04-27T01:00:41.007Z,19.30
2023-04-27T01:03:08.374Z,17.70
2023-04-27T01:05:37.953Z,16.90
2023-04-27T01:08:05.505Z,16.60
2023-04-27T01:10:32.125Z,19.10
2023-04-27T01:12:58.905Z,17.60
2023-04-27T01:15:25.654Z,16.00
2023-04-27T01:18:02.663Z,17.20
2023-04-27T01:20:32.694Z,18.80
2023-04-27T01:22:59.969Z,16.40
2023-04-27T01:25:26.638Z,16.60
2023-04-27T01:27:54.510Z,19.50
2023-04-27T01:30:22.649Z,21.40
2023-04-27T01:32:50.121Z,21.60
2023-04-27T01:35:18.958Z,22.50
2023-04-27T01:37:47.644Z,22.10
2023-04-27T01:40:15.001Z,20.90
2023-04-27T01:42:42.142Z,23.80
2023-04-27T01:45:09.611Z,25.50
2023-04-27T01:47:36.402Z,23.60
2023-04-27T01:50:04.044Z,21.70
2023-04-27T01:52:30.631Z,24.50
2023-04-27T01:54:57.302Z,22.70
2023-04-27T01:57:23.925Z,23.90
2023-04-27T01:59:50.680Z,22.60
2023-04-27T02:02:17.293Z,24.90
2023-04-27T02:04:45.243Z,24.90
2023-04-27T02:07:12.316Z,23.40
2023-04-27T02:09:38.891Z,25.50
2023-04-27T02:12:06.125Z,25.20
2023-04-27T02:14:32.943Z,24.60
2023-04-27T02:17:06.237Z,23.80
2023-04-27T02:19:32.865Z,23.20
2023-04-27T02:21:59.459Z,23.10
2023-04-27T02:24:26.953Z,23.10
2023-04-27T02:26:53.578Z,22.00
2023-04-27T02:29:20.194Z,23.90
2023-04-27T02:31:47.540Z,21.70
2023-04-27T02:34:14.131Z,22.30
2023-04-27T02:36:40.767Z,22.20
2023-04-27T02:39:09.150Z,22.10
2023-04-27T02:41:37.049Z,21.80
2023-04-27T02:44:03.646Z,21.50
2023-04-27T02:46:30.835Z,22.50
2023-04-27T02:48:57.518Z,22.60
2023-04-27T02:51:24.100Z,22.40
2023-04-27T02:53:53.120Z,22.80
2023-04-27T02:56:19.718Z,22.70
2023-04-27T02:58:48.015Z,21.90
2023-04-27T03:01:17.292Z,21.80
2023-04-27T03:03:48.145Z,22.30
2023-04-27T03:06:15.342Z,24.20
2023-04-27T03:08:42.260Z,26.10
2023-04-27T03:11:09.553Z,23.90
2023-04-27T03:13:41.889Z,24.20
2023-04-27T03:16:11.840Z,23.50
2023-04-27T03:18:39.876Z,25.40
2023-04-27T03:21:07.150Z,27.00
2023-04-27T03:23:33.974Z,27.00
2023-04-27T03:26:01.190Z,29.40
2023-04-27T03:28:27.949Z,31.40
2023-04-27T03:30:55.406Z,27.90
2023-04-27T03:33:22.318Z,27.10
2023-04-27T03:35:56.552Z,28.40
2023-04-27T03:38:23.992Z,25.80
2023-04-27T03:40:50.846Z,24.30
2023-04-27T03:43:18.423Z,26.40
2023-04-27T03:45:45.058Z,26.00
2023-04-27T03:48:11.896Z,24.30
2023-04-27T03:50:38.754Z,24.10
2023-04-27T03:53:05.366Z,23.80
2023-04-27T03:55:32.100Z,22.40
2023-04-27T03:57:58.774Z,22.00
2023-04-27T04:00:25.386Z,21.90
2023-04-27T04:02:53.415Z,23.10
2023-04-27T04:05:20.557Z,25.50
2023-04-27T04:07:48.967Z,23.50
2023-04-27T04:10:15.640Z,24.90
2023-04-27T04:12:42.523Z,22.10
2023-04-27T04:15:09.390Z,25.20
2023-04-27T04:17:36.688Z,25.50
2023-04-27T04:20:08.008Z,25.20
2023-04-27T04:22:34.621Z,26.10
2023-04-27T04:25:01.397Z,25.60
2023-04-27T04:27:28.175Z,24.50
2023-04-27T04:29:55.617Z,22.20
2023-04-27T04:32:23.176Z,20.70
2023-04-27T04:34:52.700Z,21.10
2023-04-27T04:37:20.139Z,20.80
2023-04-27T04:39:46.730Z,19.30
2023-04-27T04:42:13.581Z,21.00
2023-04-27T04:44:43.293Z,18.40
2023-04-27T04:47:10.294Z,19.30
2023-04-27T04:49:36.971Z,21.10
2023-04-27T04:52:06.453Z,18.70
2023-04-27T04:54:32.997Z,20.10
2023-04-27T04:57:00.944Z,19.50
2023-04-27T04:59:29.037Z,19.90
2023-04-27T05:01:58.243Z,19.10
2023-04-27T05:04:25.158Z,18.30
2023-04-27T05:06:53.076Z,16.00
2023-04-27T05:09:19.638Z,14.70
2023-04-27T05:11:46.350Z,15.30
2023-04-27T05:14:12.912Z,15.30
2023-04-27T05:16:39.471Z,15.60
2023-04-27T05:19:06.074Z,16.10
2023-04-27T05:21:33.632Z,15.00
2023-04-27T05:24:00.735Z,14.80
2023-04-27T05:26:27.331Z,14.20
2023-04-27T05:28:53.862Z,15.00
2023-04-27T05:31:20.538Z,14.10
2023-04-27T05:33:47.151Z,13.90
2023-04-27T05:36:13.732Z,14.40
2023-04-27T05:38:40.586Z,14.50
2023-04-27T05:41:07.586Z,13.70
2023-04-27T05:43:35.163Z,14.50
2023-04-27T05:46:01.839Z,14.40
2023-04-27T05:48:28.488Z,15.30
2023-04-27T05:51:02.857Z,14.70
2023-04-27T05:53:30.210Z,14.00
2023-04-27T05:55:59.031Z,14.10
2023-04-27T05:58:25.962Z,13.80
2023-04-27T06:00:53.659Z,14.70
2023-04-27T06:03:20.641Z,14.40
2023-04-27T06:05:47.310Z,15.00
2023-04-27T06:08:14.017Z,14.40
2023-04-27T06:10:41.099Z,14.20
2023-04-27T06:13:07.627Z,14.20
2023-04-27T06:15:34.235Z,14.30
2023-04-27T06:18:00.815Z,13.90
2023-04-27T06:20:27.581Z,14.30
2023-04-27T06:22:54.479Z,14.00
2023-04-27T06:25:24.419Z,12.40
2023-04-27T06:27:52.693Z,12.80
2023-04-27T06:30:19.322Z,13.20
2023-04-27T06:32:46.044Z,12.30
2023-04-27T06:35:12.670Z,12.10
2023-04-27T06:37:39.258Z,10.70
2023-04-27T06:40:07.616Z,11.20
2023-04-27T06:42:34.859Z,10.80
2023-04-27T06:45:01.381Z,10.60
2023-04-27T06:47:30.860Z,9.20
2023-04-27T06:49:57.507Z,9.00
2023-04-27T06:52:24.107Z,8.90
2023-04-27T06:54:50.644Z,8.80
2023-04-27T06:57:17.314Z,9.00
2023-04-27T06:59:43.936Z,8.50
2023-04-27T07:02:10.905Z,7.80
2023-04-27T07:04:38.234Z,7.80
2023-04-27T07:07:05.052Z,7.60
2023-04-27T07:09:31.853Z,6.60
2023-04-27T07:11:59.029Z,6.00
2023-04-27T07:14:26.022Z,6.70
2023-04-27T07:16:52.640Z,7.10
2023-04-27T07:19:19.543Z,6.00
2023-04-27T07:21:46.228Z,6.10
2023-04-27T07:24:12.848Z,6.30
2023-04-27T07:26:39.657Z,5.60
2023-04-27T07:29:14.755Z,6.00
2023-04-27T07:31:52.184Z,6.40
2023-04-27T07:34:18.922Z,5.60
2023-04-27T07:36:45.807Z,5.80
2023-04-27T07:39:12.794Z,4.20
2023-04-27T07:41:39.799Z,4.40
2023-04-27T07:44:06.535Z,3.80
2023-04-27T07:46:33.182Z,3.90
2023-04-27T07:49:00.218Z,4.20
2023-04-27T07:51:28.870Z,4.20
2023-04-27T07:53:56.403Z,4.10
2023-04-27T07:56:22.978Z,4.50
2023-04-27T07:58:49.496Z,4.00
2023-04-27T08:01:16.916Z,4.10
2023-04-27T08:03:44.777Z,3.80
2023-04-27T08:06:12.156Z,4.30
2023-04-27T08:08:38.981Z,3.40
2023-04-27T08:11:09.729Z,3.30
2023-04-27T08:13:36.866Z,3.80
2023-04-27T08:16:03.699Z,3.80
2023-04-27T08:18:30.503Z,3.20
2023-04-27T08:20:57.170Z,3.30
2023-04-27T08:23:28.413Z,3.30
2023-04-27T08:25:55.182Z,3.70
2023-04-27T08:28:23.330Z,3.90
2023-04-27T08:30:50.099Z,4.30
2023-04-27T08:33:16.886Z,4.30
2023-04-27T08:35:43.565Z,3.70
2023-04-27T08:38:10.232Z,3.60
2023-04-27T08:40:41.714Z,4.20
2023-04-27T08:43:08.367Z,4.50
2023-04-27T08:45:34.907Z,4.10
2023-04-27T08:48:01.516Z,4.20
2023-04-27T08:50:28.658Z,4.10
2023-04-27T08:52:55.262Z,4.20
2023-04-27T08:55:22.110Z,4.20
2023-04-27T08:57:56.272Z,4.00
2023-04-27T09:00:24.746Z,3.70
2023-04-27T09:02:51.873Z,4.20
2023-04-27T09:05:20.113Z,3.60
2023-04-27T09:08:16.408Z,3.50
2023-04-27T09:10:53.278Z,3.90
2023-04-27T09:13:19.816Z,3.70
2023-04-27T09:15:51.821Z,4.10
2023-04-27T09:18:21.057Z,3.80
2023-04-27T09:20:52.433Z,3.60
2023-04-27T09:23:32.887Z,4.30
2023-04-27T09:26:01.552Z,4.50
2023-04-27T09:28:30.663Z,4.60
2023-04-27T09:31:02.035Z,5.00
2023-04-27T09:33:31.624Z,4.60
2023-04-27T09:35:59.964Z,4.40
2023-04-27T09:38:27.175Z,5.00
2023-04-27T09:40:54.937Z,5.20
2023-04-27T09:43:22.125Z,6.20
2023-04-27T09:45:50.165Z,6.20
2023-04-27T09:48:18.548Z,14.60
2023-04-27T09:50:46.577Z,9.00
2023-04-27T09:53:15.790Z,19.70
2023-04-27T09:56:35.181Z,26.80
2023-04-27T09:59:27.045Z,14.60
2023-04-27T10:02:02.796Z,20.60
2023-04-27T10:04:31.929Z,13.00
2023-04-27T10:07:00.039Z,10.70
2023-04-27T10:09:30.499Z,14.20
2023-04-27T10:12:15.659Z,22.30
2023-04-27T10:14:53.567Z,10.50
2023-04-27T10:17:27.114Z,7.00
2023-04-27T10:19:58.228Z,5.20
2023-04-27T10:22:40.599Z,12.50
2023-04-27T10:25:17.912Z,12.40
2023-04-27T10:27:49.870Z,10.40
2023-04-27T10:30:18.877Z,9.60
2023-04-27T10:32:58.018Z,5.90
2023-04-27T10:35:36.788Z,5.50
2023-04-27T10:38:11.224Z,4.30
2023-04-27T10:40:38.718Z,4.70
2023-04-27T10:43:13.228Z,7.80
2023-04-27T10:45:41.339Z,13.30
2023-04-27T10:48:08.773Z,4.40
2023-04-27T10:50:35.834Z,8.60
2023-04-27T10:53:05.376Z,3.70
2023-04-27T10:55:33.201Z,6.10
2023-04-27T10:58:01.563Z,6.60
2023-04-27T11:00:33.312Z,5.40
2023-04-27T11:03:14.582Z,5.00
2023-04-27T11:05:43.094Z,4.00
2023-04-27T11:08:12.163Z,4.40
2023-04-27T11:10:47.402Z,4.80
2023-04-27T11:13:16.109Z,4.10
2023-04-27T11:15:56.653Z,4.20
2023-04-27T11:18:31.753Z,9.80
2023-04-27T11:21:13.426Z,4.60
2023-04-27T11:23:41.245Z,5.90
2023-04-27T11:26:21.570Z,4.00
2023-04-27T11:29:12.548Z,4.60
2023-04-27T11:31:47.385Z,4.60
2023-04-27T11:34:19.688Z,5.90
2023-04-27T11:39:36.562Z,4.00
2023-04-27T11:42:23.495Z,4.20
2023-04-27T11:44:59.291Z,5.20
2023-04-27T11:47:31.201Z,4.00
2023-04-27T11:50:04.645Z,2.90
2023-04-27T11:52:36.277Z,2.70
2023-04-27T11:55:04.713Z,3.10
2023-04-27T11:57:33.654Z,2.90
2023-04-27T12:00:02.569Z,3.70
2023-04-27T12:02:40.707Z,3.70
2023-04-27T12:05:09.212Z,3.70
2023-04-27T12:07:36.432Z,3.60
2023-04-27T12:10:03.398Z,3.80
2023-04-27T12:12:30.026Z,2.90
2023-04-27T12:14:56.858Z,3.90
2023-04-27T12:17:23.529Z,3.60
2023-04-27T12:19:50.256Z,3.60
2023-04-27T12:22:16.883Z,3.70
2023-04-27T12:24:43.503Z,3.30
2023-04-27T12:27:10.105Z,3.20
2023-04-27T12:29:37.600Z,2.40
2023-04-27T12:32:04.670Z,2.50
2023-04-27T12:34:32.357Z,3.00
2023-04-27T12:36:59.215Z,2.30
2023-04-27T12:39:26.014Z,4.80
2023-04-27T12:41:54.165Z,3.50
2023-04-27T12:44:21.915Z,2.90
2023-04-27T12:46:48.903Z,2.50
2023-04-27T12:49:15.906Z,3.00
2023-04-27T12:51:43.280Z,2.20
2023-04-27T12:54:11.421Z,10.50
2023-04-27T12:56:38.289Z,2.60
2023-04-27T12:59:06.257Z,3.60
2023-04-27T13:01:33.434Z,2.60
2023-04-27T13:04:02.996Z,4.80
2023-04-27T13:06:32.200Z,2.30
2023-04-27T13:08:59.780Z,3.30
2023-04-27T13:11:27.234Z,4.00
2023-04-27T13:13:55.335Z,2.50
2023-04-27T13:16:25.177Z,2.60
2023-04-27T13:18:53.847Z,2.50
2023-04-27T13:21:21.051Z,3.00
2023-04-27T13:23:48.147Z,2.30
2023-04-27T13:26:16.574Z,2.00
2023-04-27T13:28:43.409Z,1.80
2023-04-27T13:31:11.123Z,1.90
2023-04-27T13:33:43.267Z,2.40
2023-04-27T13:36:11.509Z,2.20
2023-04-27T13:38:38.493Z,1.60
2023-04-27T13:41:06.605Z,2.00
2023-04-27T13:43:33.507Z,7.30
2023-04-27T13:46:01.587Z,3.00
2023-04-27T13:48:29.867Z,3.00
2023-04-27T13:50:56.962Z,3.60
2023-04-27T13:53:25.920Z,2.00
2023-04-27T13:55:57.524Z,2.00
2023-04-27T13:58:26.277Z,1.80
2023-04-27T14:00:53.919Z,2.20
2023-04-27T14:03:21.629Z,2.00
2023-04-27T14:05:51.012Z,2.20
2023-04-27T14:08:18.425Z,2.10
2023-04-27T14:10:46.012Z,1.90
2023-04-27T14:13:13.262Z,1.80
2023-04-27T14:15:40.427Z,2.00
2023-04-27T14:18:08.435Z,1.90
2023-04-27T14:20:36.437Z,2.30
2023-04-27T14:23:04.999Z,2.50
2023-04-27T14:25:35.183Z,2.10
2023-04-27T14:28:05.075Z,2.10
2023-04-27T14:30:35.462Z,2.20
2023-04-27T14:33:02.702Z,2.20
2023-04-27T14:35:29.621Z,2.40
2023-04-27T14:38:01.906Z,2.10
2023-04-27T14:40:32.569Z,2.10
2023-04-27T14:42:59.767Z,2.30
2023-04-27T14:45:36.720Z,2.40
2023-04-27T14:48:07.203Z,3.20
2023-04-27T14:50:34.671Z,3.40
2023-04-27T14:53:02.227Z,3.60
2023-04-27T14:55:29.561Z,1.80
2023-04-27T14:57:56.224Z,2.10
2023-04-27T15:00:22.934Z,6.20
2023-04-27T15:02:49.741Z,2.50
2023-04-27T15:05:16.448Z,10.70
2023-04-27T15:07:43.132Z,2.80
2023-04-27T15:10:10.069Z,3.10
2023-04-27T15:12:36.706Z,7.90
2023-04-27T15:15:03.681Z,13.70
2023-04-27T15:17:30.617Z,11.30
2023-04-27T15:19:57.254Z,30.10
2023-04-27T15:22:24.003Z,6.80
2023-04-27T15:24:51.259Z,13.40
2023-04-27T15:27:17.909Z,19.00
2023-04-27T15:29:44.651Z,33.60
2023-04-27T15:32:11.718Z,3.50
2023-04-27T15:34:38.837Z,14.40
2023-04-27T15:37:05.686Z,12.70
2023-04-27T15:39:32.306Z,20.80
2023-04-27T15:41:59.802Z,9.10
2023-04-27T15:44:27.167Z,11.20
2023-04-27T15:46:54.393Z,5.30
2023-04-27T15:49:21.734Z,16.50
2023-04-27T15:51:49.108Z,25.30
2023-04-27T15:54:17.728Z,19.40
2023-04-27T15:56:44.488Z,11.30
2023-04-27T15:59:12.193Z,3.40
2023-04-27T16:01:39.114Z,6.40
2023-04-27T16:04:06.397Z,4.30
2023-04-27T16:06:34.921Z,3.80
2023-04-27T16:09:03.535Z,3.00
2023-04-27T16:11:31.714Z,3.60
2023-04-27T16:13:59.599Z,2.90
2023-04-27T16:16:27.085Z,2.40
2023-04-27T16:18:53.951Z,2.60
2023-04-27T16:21:20.551Z,2.70
2023-04-27T16:23:47.515Z,2.90
2023-04-27T16:26:14.371Z,2.90
2023-04-27T16:28:41.532Z,3.20
2023-04-27T16:31:08.301Z,2.70
2023-04-27T16:33:34.998Z,3.20
2023-04-27T16:36:01.663Z,2.70
2023-04-27T16:38:28.250Z,3.10
2023-04-27T16:40:56.073Z,3.40
2023-04-27T16:43:22.972Z,3.10
2023-04-27T16:45:49.803Z,3.70
2023-04-27T16:48:17.651Z,3.80
2023-04-27T16:50:44.735Z,3.70
2023-04-27T16:53:19.831Z,3.70
2023-04-27T16:55:46.929Z,3.10
2023-04-27T16:58:13.831Z,3.00
2023-04-27T17:00:41.061Z,2.70
2023-04-27T17:03:07.892Z,4.00
2023-04-27T17:05:34.930Z,3.00
2023-04-27T17:08:03.061Z,3.20
2023-04-27T17:10:32.192Z,3.60
2023-04-27T17:12:59.324Z,3.10
2023-04-27T17:15:28.846Z,3.20
2023-04-27T17:17:56.295Z,3.20
2023-04-27T17:20:23.122Z,3.60
2023-04-27T17:22:49.741Z,3.80
2023-04-27T17:25:16.904Z,3.60
2023-04-27T17:27:43.493Z,4.30
2023-04-27T17:30:10.868Z,3.60
2023-04-27T17:32:37.780Z,4.10
2023-04-27T17:35:05.661Z,3.70
2023-04-27T17:37:32.669Z,4.20
2023-04-27T17:39:59.451Z,3.60
2023-04-27T17:42:26.232Z,4.30
2023-04-27T17:44:52.869Z,3.40
2023-04-27T17:47:22.265Z,4.10
2023-04-27T17:49:49.067Z,3.90
2023-04-27T17:52:16.063Z,3.90
2023-04-27T17:54:43.493Z,4.10
2023-04-27T17:57:10.100Z,4.20
2023-04-27T17:59:37.019Z,4.00
2023-04-27T18:02:03.699Z,4.80
2023-04-27T18:04:30.547Z,6.20
2023-04-27T18:06:57.513Z,12.90
2023-04-27T18:09:26.276Z,31.70
2023-04-27T18:11:53.085Z,25.10
2023-04-27T18:14:19.737Z,25.60
2023-04-27T18:16:46.497Z,7.90
2023-04-27T18:19:13.462Z,4.50
2023-04-27T18:21:40.684Z,4.20
2023-04-27T18:24:08.623Z,3.40
2023-04-27T18:26:36.979Z,3.20
2023-04-27T18:29:03.686Z,3.20
2023-04-27T18:31:30.673Z,3.60
2023-04-27T18:33:57.661Z,3.90
2023-04-27T18:36:27.624Z,3.60
2023-04-27T18:41:21.544Z,5.40
2023-04-27T18:43:48.219Z,6.50
2023-04-27T18:46:14.998Z,12.40
2023-04-27T18:48:42.274Z,22.30
2023-04-27T18:51:09.151Z,21.20
2023-04-27T18:53:35.937Z,23.60
2023-04-27T18:56:03.189Z,31.80
2023-04-27T18:58:30.104Z,10.30
2023-04-27T19:00:56.852Z,8.50
2023-04-27T19:03:24.261Z,24.30
2023-04-27T19:05:52.571Z,16.30
2023-04-27T19:08:19.353Z,11.90
2023-04-27T19:10:46.227Z,14.50
2023-04-27T19:13:12.924Z,14.80
2023-04-27T19:15:39.708Z,12.00
2023-04-27T19:18:11.354Z,10.60
2023-04-27T19:20:40.827Z,11.20
2023-04-27T19:23:09.451Z,10.50
2023-04-27T19:25:36.727Z,11.10
2023-04-27T19:28:04.582Z,10.50
2023-04-27T19:30:31.415Z,11.00
2023-04-27T19:32:58.213Z,10.20
2023-04-27T19:35:26.548Z,10.60
2023-04-27T19:37:53.395Z,12.10
2023-04-27T19:40:20.002Z,10.50
2023-04-27T19:42:48.064Z,10.50
2023-04-27T19:45:15.499Z,10.00
2023-04-27T19:47:42.265Z,9.40
2023-04-27T19:50:09.680Z,11.50
2023-04-27T19:52:36.905Z,11.20
2023-04-27T19:55:04.451Z,10.90
2023-04-27T19:57:31.479Z,13.20
2023-04-27T19:59:58.146Z,13.20
2023-04-27T20:02:25.066Z,14.30
2023-04-27T20:04:52.151Z,12.50
2023-04-27T20:07:18.976Z,12.40
2023-04-27T20:09:45.680Z,12.90
2023-04-27T20:12:28.910Z,12.40
2023-04-27T20:14:59.173Z,14.70
2023-04-27T20:17:27.444Z,17.60
2023-04-27T20:19:56.301Z,12.10
2023-04-27T20:22:23.923Z,17.50
2023-04-27T20:24:50.899Z,14.20
2023-04-27T20:27:18.128Z,16.70
2023-04-27T20:29:46.718Z,17.40
2023-04-27T20:32:13.501Z,32.20
2023-04-27T20:34:40.101Z,82.50
2023-04-27T20:37:07.847Z,72.60
2023-04-27T20:39:35.156Z,24.20
2023-04-27T20:42:02.183Z,18.80
2023-04-27T20:44:29.030Z,17.70
2023-04-27T20:46:56.248Z,70.70
2023-04-27T20:49:31.895Z,127.30
2023-04-27T20:52:01.893Z,129.70
2023-04-27T20:54:31.094Z,116.90
2023-04-27T20:56:58.067Z,44.30
2023-04-27T20:59:25.215Z,48.40
2023-04-27T21:01:52.215Z,33.20
2023-04-27T21:04:19.293Z,32.20
2023-04-27T21:06:46.441Z,32.20
2023-04-27T21:09:13.176Z,29.10
2023-04-27T21:11:40.039Z,21.30
2023-04-27T21:14:07.039Z,26.30
2023-04-27T21:16:33.942Z,25.50
2023-04-27T21:19:00.925Z,24.60
2023-04-27T21:21:27.839Z,26.40
2023-04-27T21:24:04.209Z,24.70
2023-04-27T21:26:42.537Z,25.20
2023-04-27T21:29:09.122Z,23.10
2023-04-27T21:31:35.969Z,22.80
2023-04-27T21:34:05.800Z,24.80
2023-04-27T21:36:32.372Z,25.10
2023-04-27T21:38:58.906Z,27.00
2023-04-27T21:41:26.229Z,28.40
2023-04-27T21:43:52.899Z,27.40
2023-04-27T21:46:19.665Z,31.10
2023-04-27T21:48:46.334Z,31.10
2023-04-27T21:51:14.945Z,29.50
2023-04-27T21:53:41.697Z,33.90
2023-04-27T21:56:08.424Z,44.00
2023-04-27T21:58:35.077Z,48.30
2023-04-27T22:01:01.844Z,50.60
2023-04-27T22:03:28.772Z,60.70
2023-04-27T22:05:57.664Z,59.80
2023-04-27T22:08:24.375Z,50.90
2023-04-27T22:10:51.234Z,45.80
2023-04-27T22:13:19.328Z,49.80
2023-04-27T22:15:47.446Z,45.00
2023-04-27T22:18:15.662Z,45.20
2023-04-27T22:20:43.223Z,41.50
2023-04-27T22:23:10.897Z,40.10
2023-04-27T22:25:37.695Z,37.60
2023-04-27T22:28:04.545Z,38.80
2023-04-27T22:30:31.334Z,41.10
2023-04-27T22:32:58.376Z,43.70
2023-04-27T22:35:27.687Z,44.50
2023-04-27T22:37:59.136Z,43.90
2023-04-27T22:40:26.463Z,42.90
2023-04-27T22:42:54.896Z,45.30
2023-04-27T22:45:22.738Z,47.90
2023-04-27T22:47:49.577Z,46.40
2023-04-27T22:50:16.763Z,42.30
2023-04-27T22:52:43.727Z,44.20
2023-04-27T22:55:11.999Z,43.80
2023-04-27T22:57:39.744Z,42.90
2023-04-27T23:00:09.093Z,46.90
2023-04-27T23:02:36.024Z,51.70
2023-04-27T23:05:03.878Z,59.10
2023-04-27T23:07:30.711Z,55.00
2023-04-27T23:09:57.313Z,55.20
2023-04-27T23:12:26.946Z,54.10
2023-04-27T23:14:53.526Z,51.80
2023-04-27T23:17:22.579Z,53.60
2023-04-27T23:19:49.684Z,55.20
2023-04-27T23:22:16.640Z,53.30
2023-04-27T23:24:43.393Z,55.20
2023-04-27T23:27:09.922Z,51.90
2023-04-27T23:29:36.518Z,53.20
2023-04-27T23:32:04.624Z,52.50
2023-04-27T23:34:34.298Z,50.70
2023-04-27T23:37:01.519Z,50.20
2023-04-27T23:39:28.641Z,47.70
2023-04-27T23:41:55.411Z,45.00
2023-04-27T23:44:22.112Z,48.30
2023-04-27T23:46:48.637Z,46.50
2023-04-27T23:49:15.421Z,46.80
2023-04-27T23:51:42.154Z,45.10
2023-04-27T23:54:09.002Z,43.60
2023-04-27T23:56:36.634Z,41.50
2023-04-27T23:59:03.512Z,40.80
